sensor_id;sensor_type;location;lat;lon;timestamp;P1;durP1;ratioP1;P2;durP2;ratioP2
15673;SDS011;7937;48.090;16.212;2023-08-31T00:01:27;2.30;;;1.50;;
15673;SDS011;7937;48.090;16.212;2023-08-31T00:04:30;2.63;;;1.50;;
15673;SDS011;7937;48.090;16.212;2023-08-31T00:07:32;1.70;;;1.60;;
15673;SDS011;7937;48.090;16.212;2023-08-31T00:10:35;2.30;;;1.80;;
15673;SDS011;7937;48.090;16.212;2023-08-31T00:13:38;3.37;;;1.50;;
15673;SDS011;7937;48.090;16.212;2023-08-31T00:16:40;1.60;;;1.50;;
15673;SDS011;7937;48.090;16.212;2023-08-31T00:19:43;1.93;;;1.70;;
15673;SDS011;7937;48.090;16.212;2023-08-31T00:22:46;1.33;;;1.23;;
15673;SDS011;7937;48.090;16.212;2023-08-31T00:25:50;1.50;;;1.40;;
15673;SDS011;7937;48.090;16.212;2023-08-31T00:28:54;1.40;;;1.30;;
15673;SDS011;7937;48.090;16.212;2023-08-31T00:31:57;2.30;;;1.67;;
15673;SDS011;7937;48.090;16.212;2023-08-31T00:35:00;2.30;;;1.60;;
15673;SDS011;7937;48.090;16.212;2023-08-31T00:38:02;1.67;;;1.43;;
15673;SDS011;7937;48.090;16.212;2023-08-31T00:41:06;2.93;;;1.67;;
15673;SDS011;7937;48.090;16.212;2023-08-31T00:44:09;1.90;;;1.40;;
15673;SDS011;7937;48.090;16.212;2023-08-31T00:47:12;1.67;;;1.57;;
15673;SDS011;7937;48.090;16.212;2023-08-31T00:50:15;2.17;;;2.00;;
15673;SDS011;7937;48.090;16.212;2023-08-31T00:53:18;1.97;;;1.50;;
15673;SDS011;7937;48.090;16.212;2023-08-31T00:56:21;2.37;;;2.10;;
15673;SDS011;7937;48.090;16.212;2023-08-31T00:59:24;1.80;;;1.70;;
15673;SDS011;7937;48.090;16.212;2023-08-31T01:09:45;2.07;;;1.63;;
15673;SDS011;7937;48.090;16.212;2023-08-31T01:13:01;2.17;;;1.73;;
15673;SDS011;7937;48.090;16.212;2023-08-31T01:16:06;2.00;;;1.80;;
15673;SDS011;7937;48.090;16.212;2023-08-31T01:22:51;2.00;;;1.63;;
15673;SDS011;7937;48.090;16.212;2023-08-31T01:26:00;1.83;;;1.63;;
15673;SDS011;7937;48.090;16.212;2023-08-31T01:29:03;2.77;;;2.07;;
15673;SDS011;7937;48.090;16.212;2023-08-31T01:32:06;2.00;;;1.90;;
15673;SDS011;7937;48.090;16.212;2023-08-31T01:35:11;2.33;;;2.13;;
15673;SDS011;7937;48.090;16.212;2023-08-31T01:38:25;2.40;;;2.00;;
15673;SDS011;7937;48.090;16.212;2023-08-31T01:41:31;3.73;;;2.60;;
15673;SDS011;7937;48.090;16.212;2023-08-31T01:44:37;2.40;;;2.20;;
15673;SDS011;7937;48.090;16.212;2023-08-31T01:47:41;2.43;;;1.90;;
15673;SDS011;7937;48.090;16.212;2023-08-31T01:50:47;2.50;;;2.30;;
15673;SDS011;7937;48.090;16.212;2023-08-31T01:53:49;2.30;;;2.10;;
15673;SDS011;7937;48.090;16.212;2023-08-31T01:56:52;2.10;;;1.63;;
15673;SDS011;7937;48.090;16.212;2023-08-31T01:59:55;2.10;;;1.90;;
15673;SDS011;7937;48.090;16.212;2023-08-31T02:02:57;2.13;;;2.00;;
15673;SDS011;7937;48.090;16.212;2023-08-31T02:06:00;4.93;;;2.33;;
15673;SDS011;7937;48.090;16.212;2023-08-31T02:09:02;2.67;;;2.17;;
15673;SDS011;7937;48.090;16.212;2023-08-31T02:12:05;2.37;;;2.10;;
15673;SDS011;7937;48.090;16.212;2023-08-31T02:15:07;2.10;;;2.00;;
15673;SDS011;7937;48.090;16.212;2023-08-31T02:18:11;4.40;;;2.40;;
15673;SDS011;7937;48.090;16.212;2023-08-31T02:21:13;2.37;;;2.17;;
15673;SDS011;7937;48.090;16.212;2023-08-31T02:24:16;3.07;;;2.27;;
15673;SDS011;7937;48.090;16.212;2023-08-31T02:27:18;2.30;;;2.10;;
15673;SDS011;7937;48.090;16.212;2023-08-31T02:30:22;2.13;;;2.00;;
15673;SDS011;7937;48.090;16.212;2023-08-31T02:33:25;1.90;;;1.80;;
15673;SDS011;7937;48.090;16.212;2023-08-31T02:36:27;2.27;;;2.07;;
15673;SDS011;7937;48.090;16.212;2023-08-31T02:39:30;2.43;;;2.23;;
15673;SDS011;7937;48.090;16.212;2023-08-31T02:42:32;2.30;;;2.10;;
15673;SDS011;7937;48.090;16.212;2023-08-31T02:45:35;3.07;;;2.20;;
15673;SDS011;7937;48.090;16.212;2023-08-31T02:48:37;2.20;;;2.00;;
15673;SDS011;7937;48.090;16.212;2023-08-31T02:51:42;2.13;;;1.80;;
15673;SDS011;7937;48.090;16.212;2023-08-31T02:54:44;2.27;;;1.87;;
15673;SDS011;7937;48.090;16.212;2023-08-31T02:57:47;1.83;;;1.70;;
15673;SDS011;7937;48.090;16.212;2023-08-31T03:00:49;2.90;;;1.90;;
15673;SDS011;7937;48.090;16.212;2023-08-31T03:03:52;2.80;;;1.77;;
15673;SDS011;7937;48.090;16.212;2023-08-31T03:06:55;2.03;;;1.83;;
15673;SDS011;7937;48.090;16.212;2023-08-31T03:09:58;2.03;;;1.60;;
15673;SDS011;7937;48.090;16.212;2023-08-31T03:13:03;2.17;;;1.97;;
15673;SDS011;7937;48.090;16.212;2023-08-31T03:16:06;1.87;;;1.60;;
15673;SDS011;7937;48.090;16.212;2023-08-31T03:19:09;1.60;;;1.50;;
15673;SDS011;7937;48.090;16.212;2023-08-31T03:22:11;1.70;;;1.60;;
15673;SDS011;7937;48.090;16.212;2023-08-31T03:25:15;1.47;;;1.20;;
15673;SDS011;7937;48.090;16.212;2023-08-31T03:28:18;2.13;;;1.10;;
15673;SDS011;7937;48.090;16.212;2023-08-31T03:31:22;1.60;;;1.50;;
15673;SDS011;7937;48.090;16.212;2023-08-31T03:34:28;1.50;;;1.40;;
15673;SDS011;7937;48.090;16.212;2023-08-31T03:37:32;2.03;;;1.50;;
15673;SDS011;7937;48.090;16.212;2023-08-31T03:40:35;3.00;;;1.50;;
15673;SDS011;7937;48.090;16.212;2023-08-31T03:43:39;1.80;;;1.67;;
15673;SDS011;7937;48.090;16.212;2023-08-31T03:46:42;2.20;;;1.20;;
15673;SDS011;7937;48.090;16.212;2023-08-31T03:49:45;1.90;;;1.50;;
15673;SDS011;7937;48.090;16.212;2023-08-31T03:52:49;1.47;;;1.37;;
15673;SDS011;7937;48.090;16.212;2023-08-31T03:55:51;1.80;;;1.40;;
15673;SDS011;7937;48.090;16.212;2023-08-31T03:58:54;2.03;;;1.30;;
15673;SDS011;7937;48.090;16.212;2023-08-31T04:01:57;1.30;;;1.13;;
15673;SDS011;7937;48.090;16.212;2023-08-31T04:05:01;1.53;;;1.37;;
15673;SDS011;7937;48.090;16.212;2023-08-31T04:08:07;2.70;;;1.40;;
15673;SDS011;7937;48.090;16.212;2023-08-31T04:11:09;1.47;;;1.37;;
15673;SDS011;7937;48.090;16.212;2023-08-31T04:14:12;3.13;;;1.50;;
15673;SDS011;7937;48.090;16.212;2023-08-31T04:17:14;1.23;;;1.10;;
15673;SDS011;7937;48.090;16.212;2023-08-31T04:20:17;1.57;;;1.13;;
15673;SDS011;7937;48.090;16.212;2023-08-31T04:23:20;1.43;;;1.30;;
15673;SDS011;7937;48.090;16.212;2023-08-31T04:26:23;1.27;;;1.17;;
15673;SDS011;7937;48.090;16.212;2023-08-31T04:29:26;1.80;;;1.43;;
15673;SDS011;7937;48.090;16.212;2023-08-31T04:32:28;1.40;;;1.30;;
15673;SDS011;7937;48.090;16.212;2023-08-31T04:35:31;1.47;;;1.20;;
15673;SDS011;7937;48.090;16.212;2023-08-31T04:38:34;1.43;;;1.30;;
15673;SDS011;7937;48.090;16.212;2023-08-31T04:41:36;1.57;;;1.33;;
15673;SDS011;7937;48.090;16.212;2023-08-31T04:44:38;1.57;;;1.40;;
15673;SDS011;7937;48.090;16.212;2023-08-31T04:47:41;1.23;;;1.13;;
15673;SDS011;7937;48.090;16.212;2023-08-31T04:50:44;1.50;;;1.40;;
15673;SDS011;7937;48.090;16.212;2023-08-31T04:53:46;1.50;;;1.40;;
15673;SDS011;7937;48.090;16.212;2023-08-31T04:56:50;2.13;;;1.10;;
15673;SDS011;7937;48.090;16.212;2023-08-31T04:59:52;1.20;;;1.10;;
15673;SDS011;7937;48.090;16.212;2023-08-31T05:02:55;1.20;;;1.00;;
15673;SDS011;7937;48.090;16.212;2023-08-31T05:05:58;1.83;;;1.40;;
15673;SDS011;7937;48.090;16.212;2023-08-31T05:09:00;3.23;;;1.57;;
15673;SDS011;7937;48.090;16.212;2023-08-31T05:12:03;1.20;;;1.10;;
15673;SDS011;7937;48.090;16.212;2023-08-31T05:15:06;2.17;;;1.57;;
15673;SDS011;7937;48.090;16.212;2023-08-31T05:18:09;1.30;;;1.20;;
15673;SDS011;7937;48.090;16.212;2023-08-31T05:21:12;2.40;;;1.30;;
15673;SDS011;7937;48.090;16.212;2023-08-31T05:24:14;1.10;;;1.00;;
15673;SDS011;7937;48.090;16.212;2023-08-31T05:27:17;1.87;;;1.43;;
15673;SDS011;7937;48.090;16.212;2023-08-31T05:30:20;2.57;;;0.80;;
15673;SDS011;7937;48.090;16.212;2023-08-31T05:33:23;1.80;;;1.03;;
15673;SDS011;7937;48.090;16.212;2023-08-31T05:36:27;1.33;;;1.17;;
15673;SDS011;7937;48.090;16.212;2023-08-31T05:39:29;1.93;;;1.00;;
15673;SDS011;7937;48.090;16.212;2023-08-31T05:42:32;1.10;;;1.00;;
15673;SDS011;7937;48.090;16.212;2023-08-31T05:45:35;1.33;;;0.90;;
15673;SDS011;7937;48.090;16.212;2023-08-31T05:48:37;0.93;;;0.80;;
15673;SDS011;7937;48.090;16.212;2023-08-31T05:51:40;1.07;;;0.97;;
15673;SDS011;7937;48.090;16.212;2023-08-31T05:54:42;1.20;;;1.10;;
15673;SDS011;7937;48.090;16.212;2023-08-31T05:57:45;1.03;;;0.97;;
15673;SDS011;7937;48.090;16.212;2023-08-31T06:00:47;1.30;;;0.93;;
15673;SDS011;7937;48.090;16.212;2023-08-31T06:03:50;1.13;;;1.00;;
15673;SDS011;7937;48.090;16.212;2023-08-31T06:06:52;1.80;;;1.20;;
15673;SDS011;7937;48.090;16.212;2023-08-31T06:09:56;1.10;;;1.00;;
15673;SDS011;7937;48.090;16.212;2023-08-31T06:12:58;1.40;;;0.90;;
15673;SDS011;7937;48.090;16.212;2023-08-31T06:16:01;0.90;;;0.90;;
15673;SDS011;7937;48.090;16.212;2023-08-31T06:19:04;1.00;;;0.90;;
15673;SDS011;7937;48.090;16.212;2023-08-31T06:22:07;0.80;;;0.80;;
15673;SDS011;7937;48.090;16.212;2023-08-31T06:25:09;1.70;;;0.83;;
15673;SDS011;7937;48.090;16.212;2023-08-31T06:28:13;1.10;;;0.90;;
15673;SDS011;7937;48.090;16.212;2023-08-31T06:31:15;1.43;;;0.93;;
15673;SDS011;7937;48.090;16.212;2023-08-31T06:34:17;1.00;;;0.90;;
15673;SDS011;7937;48.090;16.212;2023-08-31T06:37:20;1.30;;;1.00;;
15673;SDS011;7937;48.090;16.212;2023-08-31T06:40:23;1.40;;;1.00;;
15673;SDS011;7937;48.090;16.212;2023-08-31T06:43:26;1.10;;;1.00;;
15673;SDS011;7937;48.090;16.212;2023-08-31T06:46:28;0.70;;;0.70;;
15673;SDS011;7937;48.090;16.212;2023-08-31T06:49:31;0.87;;;0.87;;
15673;SDS011;7937;48.090;16.212;2023-08-31T06:52:35;1.53;;;1.10;;
15673;SDS011;7937;48.090;16.212;2023-08-31T06:59:02;1.27;;;1.10;;
15673;SDS011;7937;48.090;16.212;2023-08-31T07:02:05;1.97;;;1.10;;
15673;SDS011;7937;48.090;16.212;2023-08-31T07:05:10;2.87;;;1.00;;
15673;SDS011;7937;48.090;16.212;2023-08-31T07:08:13;1.10;;;1.10;;
15673;SDS011;7937;48.090;16.212;2023-08-31T07:11:16;2.30;;;1.10;;
15673;SDS011;7937;48.090;16.212;2023-08-31T07:14:20;1.50;;;0.90;;
15673;SDS011;7937;48.090;16.212;2023-08-31T07:17:23;1.27;;;1.17;;
15673;SDS011;7937;48.090;16.212;2023-08-31T07:20:26;1.33;;;1.23;;
15673;SDS011;7937;48.090;16.212;2023-08-31T07:23:28;1.67;;;1.27;;
15673;SDS011;7937;48.090;16.212;2023-08-31T07:26:31;1.57;;;1.00;;
15673;SDS011;7937;48.090;16.212;2023-08-31T07:29:34;1.53;;;1.10;;
15673;SDS011;7937;48.090;16.212;2023-08-31T07:32:36;1.50;;;1.10;;
15673;SDS011;7937;48.090;16.212;2023-08-31T07:35:39;1.50;;;1.10;;
15673;SDS011;7937;48.090;16.212;2023-08-31T07:38:42;1.50;;;1.40;;
15673;SDS011;7937;48.090;16.212;2023-08-31T07:41:44;2.93;;;1.27;;
15673;SDS011;7937;48.090;16.212;2023-08-31T07:44:47;1.43;;;1.30;;
15673;SDS011;7937;48.090;16.212;2023-08-31T07:47:49;1.53;;;1.43;;
15673;SDS011;7937;48.090;16.212;2023-08-31T07:50:52;2.10;;;1.40;;
15673;SDS011;7937;48.090;16.212;2023-08-31T07:53:55;1.57;;;1.47;;
15673;SDS011;7937;48.090;16.212;2023-08-31T07:56:57;1.40;;;1.30;;
15673;SDS011;7937;48.090;16.212;2023-08-31T08:00:01;2.77;;;1.30;;
15673;SDS011;7937;48.090;16.212;2023-08-31T08:03:13;2.87;;;1.47;;
15673;SDS011;7937;48.090;16.212;2023-08-31T08:06:17;3.13;;;2.00;;
15673;SDS011;7937;48.090;16.212;2023-08-31T08:09:19;1.50;;;1.37;;
15673;SDS011;7937;48.090;16.212;2023-08-31T08:12:22;2.07;;;1.20;;
15673;SDS011;7937;48.090;16.212;2023-08-31T08:15:25;4.23;;;1.50;;
15673;SDS011;7937;48.090;16.212;2023-08-31T08:18:27;2.50;;;1.53;;
15673;SDS011;7937;48.090;16.212;2023-08-31T08:21:32;1.50;;;1.30;;
15673;SDS011;7937;48.090;16.212;2023-08-31T08:24:34;2.27;;;1.23;;
15673;SDS011;7937;48.090;16.212;2023-08-31T08:27:37;3.00;;;1.53;;
15673;SDS011;7937;48.090;16.212;2023-08-31T08:30:39;2.13;;;1.43;;
15673;SDS011;7937;48.090;16.212;2023-08-31T08:33:42;2.40;;;1.70;;
15673;SDS011;7937;48.090;16.212;2023-08-31T08:36:44;1.47;;;1.33;;
15673;SDS011;7937;48.090;16.212;2023-08-31T08:39:49;1.30;;;1.20;;
15673;SDS011;7937;48.090;16.212;2023-08-31T08:43:26;1.57;;;1.47;;
15673;SDS011;7937;48.090;16.212;2023-08-31T08:46:39;1.33;;;1.20;;
15673;SDS011;7937;48.090;16.212;2023-08-31T08:49:44;1.53;;;1.43;;
15673;SDS011;7937;48.090;16.212;2023-08-31T08:52:51;1.90;;;1.70;;
15673;SDS011;7937;48.090;16.212;2023-08-31T08:55:54;1.13;;;1.03;;
15673;SDS011;7937;48.090;16.212;2023-08-31T08:58:57;2.63;;;1.20;;
15673;SDS011;7937;48.090;16.212;2023-08-31T09:01:59;1.90;;;1.17;;
15673;SDS011;7937;48.090;16.212;2023-08-31T09:05:02;2.00;;;1.33;;
15673;SDS011;7937;48.090;16.212;2023-08-31T09:08:06;1.20;;;1.10;;
15673;SDS011;7937;48.090;16.212;2023-08-31T09:11:20;1.50;;;1.20;;
15673;SDS011;7937;48.090;16.212;2023-08-31T09:14:25;1.60;;;1.40;;
15673;SDS011;7937;48.090;16.212;2023-08-31T09:17:40;2.37;;;1.37;;
15673;SDS011;7937;48.090;16.212;2023-08-31T09:20:46;1.20;;;1.10;;
15673;SDS011;7937;48.090;16.212;2023-08-31T09:23:58;9.23;;;1.00;;
15673;SDS011;7937;48.090;16.212;2023-08-31T09:27:00;1.37;;;0.97;;
15673;SDS011;7937;48.090;16.212;2023-08-31T09:30:06;1.87;;;1.10;;
15673;SDS011;7937;48.090;16.212;2023-08-31T09:33:34;1.07;;;0.97;;
15673;SDS011;7937;48.090;16.212;2023-08-31T09:36:41;1.10;;;0.80;;
15673;SDS011;7937;48.090;16.212;2023-08-31T09:39:49;1.23;;;1.00;;
15673;SDS011;7937;48.090;16.212;2023-08-31T09:42:53;0.80;;;0.80;;
15673;SDS011;7937;48.090;16.212;2023-08-31T09:45:56;0.90;;;0.80;;
15673;SDS011;7937;48.090;16.212;2023-08-31T09:49:00;1.17;;;0.90;;
15673;SDS011;7937;48.090;16.212;2023-08-31T09:52:06;1.20;;;1.10;;
15673;SDS011;7937;48.090;16.212;2023-08-31T09:55:14;0.90;;;0.80;;
15673;SDS011;7937;48.090;16.212;2023-08-31T09:58:21;1.33;;;1.10;;
15673;SDS011;7937;48.090;16.212;2023-08-31T10:01:25;1.00;;;0.93;;
15673;SDS011;7937;48.090;16.212;2023-08-31T10:04:30;1.30;;;0.67;;
15673;SDS011;7937;48.090;16.212;2023-08-31T10:07:42;1.07;;;0.97;;
15673;SDS011;7937;48.090;16.212;2023-08-31T10:10:50;1.30;;;0.80;;
15673;SDS011;7937;48.090;16.212;2023-08-31T10:13:55;0.87;;;0.87;;
15673;SDS011;7937;48.090;16.212;2023-08-31T10:16:59;0.70;;;0.70;;
15673;SDS011;7937;48.090;16.212;2023-08-31T10:20:03;1.00;;;0.90;;
15673;SDS011;7937;48.090;16.212;2023-08-31T10:23:06;1.70;;;0.90;;
15673;SDS011;7937;48.090;16.212;2023-08-31T10:26:09;1.63;;;1.00;;
15673;SDS011;7937;48.090;16.212;2023-08-31T10:29:25;1.07;;;0.80;;
15673;SDS011;7937;48.090;16.212;2023-08-31T10:32:32;0.90;;;0.83;;
15673;SDS011;7937;48.090;16.212;2023-08-31T10:42:01;0.87;;;0.77;;
15673;SDS011;7937;48.090;16.212;2023-08-31T10:45:08;0.83;;;0.83;;
15673;SDS011;7937;48.090;16.212;2023-08-31T10:48:11;0.73;;;0.73;;
15673;SDS011;7937;48.090;16.212;2023-08-31T10:51:17;1.20;;;0.77;;
15673;SDS011;7937;48.090;16.212;2023-08-31T10:54:23;1.00;;;0.90;;
15673;SDS011;7937;48.090;16.212;2023-08-31T10:57:30;0.80;;;0.80;;
15673;SDS011;7937;48.090;16.212;2023-08-31T11:00:51;1.10;;;1.00;;
15673;SDS011;7937;48.090;16.212;2023-08-31T11:03:58;1.10;;;1.00;;
15673;SDS011;7937;48.090;16.212;2023-08-31T11:07:18;1.80;;;1.00;;
15673;SDS011;7937;48.090;16.212;2023-08-31T11:10:23;1.30;;;1.20;;
15673;SDS011;7937;48.090;16.212;2023-08-31T11:13:29;1.30;;;1.20;;
15673;SDS011;7937;48.090;16.212;2023-08-31T11:16:32;1.20;;;1.10;;
15673;SDS011;7937;48.090;16.212;2023-08-31T11:19:35;1.20;;;1.10;;
15673;SDS011;7937;48.090;16.212;2023-08-31T11:22:39;1.03;;;0.93;;
15673;SDS011;7937;48.090;16.212;2023-08-31T11:25:43;0.97;;;0.87;;
15673;SDS011;7937;48.090;16.212;2023-08-31T11:28:45;1.43;;;1.10;;
15673;SDS011;7937;48.090;16.212;2023-08-31T11:31:55;1.70;;;1.10;;
15673;SDS011;7937;48.090;16.212;2023-08-31T11:35:24;2.33;;;1.30;;
15673;SDS011;7937;48.090;16.212;2023-08-31T11:39:05;2.77;;;1.00;;
15673;SDS011;7937;48.090;16.212;2023-08-31T11:42:09;1.17;;;1.07;;
15673;SDS011;7937;48.090;16.212;2023-08-31T11:45:27;1.53;;;0.93;;
15673;SDS011;7937;48.090;16.212;2023-08-31T11:48:33;1.40;;;1.00;;
15673;SDS011;7937;48.090;16.212;2023-08-31T11:51:36;0.63;;;0.63;;
15673;SDS011;7937;48.090;16.212;2023-08-31T11:54:42;1.43;;;1.10;;
15673;SDS011;7937;48.090;16.212;2023-08-31T12:01:19;1.30;;;1.00;;
15673;SDS011;7937;48.090;16.212;2023-08-31T12:04:22;1.30;;;1.20;;
15673;SDS011;7937;48.090;16.212;2023-08-31T12:07:25;1.50;;;1.13;;
15673;SDS011;7937;48.090;16.212;2023-08-31T12:10:27;2.30;;;1.30;;
15673;SDS011;7937;48.090;16.212;2023-08-31T12:13:29;3.40;;;1.10;;
15673;SDS011;7937;48.090;16.212;2023-08-31T12:16:35;1.30;;;1.20;;
15673;SDS011;7937;48.090;16.212;2023-08-31T12:19:38;1.27;;;1.10;;
15673;SDS011;7937;48.090;16.212;2023-08-31T12:22:41;3.70;;;1.20;;
15673;SDS011;7937;48.090;16.212;2023-08-31T12:25:53;0.70;;;0.70;;
15673;SDS011;7937;48.090;16.212;2023-08-31T12:28:56;1.03;;;0.80;;
15673;SDS011;7937;48.090;16.212;2023-08-31T12:31:59;1.10;;;1.00;;
15673;SDS011;7937;48.090;16.212;2023-08-31T12:35:01;1.20;;;1.10;;
15673;SDS011;7937;48.090;16.212;2023-08-31T12:38:05;1.10;;;0.90;;
15673;SDS011;7937;48.090;16.212;2023-08-31T12:41:07;0.87;;;0.80;;
15673;SDS011;7937;48.090;16.212;2023-08-31T12:44:11;1.17;;;0.87;;
15673;SDS011;7937;48.090;16.212;2023-08-31T12:47:13;1.20;;;1.00;;
15673;SDS011;7937;48.090;16.212;2023-08-31T12:50:16;1.40;;;1.00;;
15673;SDS011;7937;48.090;16.212;2023-08-31T12:53:20;1.30;;;1.07;;
15673;SDS011;7937;48.090;16.212;2023-08-31T12:56:25;1.47;;;1.10;;
15673;SDS011;7937;48.090;16.212;2023-08-31T12:59:28;2.47;;;1.10;;
15673;SDS011;7937;48.090;16.212;2023-08-31T13:02:30;4.43;;;1.10;;
15673;SDS011;7937;48.090;16.212;2023-08-31T13:05:33;1.20;;;1.10;;
15673;SDS011;7937;48.090;16.212;2023-08-31T13:08:35;1.47;;;0.90;;
15673;SDS011;7937;48.090;16.212;2023-08-31T13:11:37;1.07;;;0.90;;
15673;SDS011;7937;48.090;16.212;2023-08-31T13:14:40;2.80;;;1.33;;
15673;SDS011;7937;48.090;16.212;2023-08-31T13:17:42;1.77;;;1.20;;
15673;SDS011;7937;48.090;16.212;2023-08-31T13:20:49;1.87;;;0.97;;
15673;SDS011;7937;48.090;16.212;2023-08-31T13:23:52;1.80;;;1.30;;
15673;SDS011;7937;48.090;16.212;2023-08-31T13:26:55;1.47;;;0.80;;
15673;SDS011;7937;48.090;16.212;2023-08-31T13:29:57;1.33;;;0.97;;
15673;SDS011;7937;48.090;16.212;2023-08-31T13:32:59;1.33;;;0.97;;
15673;SDS011;7937;48.090;16.212;2023-08-31T13:36:02;2.23;;;0.97;;
15673;SDS011;7937;48.090;16.212;2023-08-31T13:39:05;2.43;;;1.20;;
15673;SDS011;7937;48.090;16.212;2023-08-31T13:42:09;1.63;;;0.93;;
15673;SDS011;7937;48.090;16.212;2023-08-31T13:45:11;1.77;;;1.40;;
15673;SDS011;7937;48.090;16.212;2023-08-31T13:48:13;1.97;;;1.00;;
15673;SDS011;7937;48.090;16.212;2023-08-31T13:51:17;1.43;;;1.23;;
15673;SDS011;7937;48.090;16.212;2023-08-31T13:54:22;3.27;;;1.00;;
15673;SDS011;7937;48.090;16.212;2023-08-31T13:57:27;1.57;;;1.00;;
15673;SDS011;7937;48.090;16.212;2023-08-31T14:00:30;1.33;;;1.17;;
15673;SDS011;7937;48.090;16.212;2023-08-31T14:03:37;2.23;;;1.30;;
15673;SDS011;7937;48.090;16.212;2023-08-31T14:07:03;1.73;;;1.27;;
15673;SDS011;7937;48.090;16.212;2023-08-31T14:10:10;1.37;;;1.10;;
15673;SDS011;7937;48.090;16.212;2023-08-31T14:13:24;1.67;;;1.00;;
15673;SDS011;7937;48.090;16.212;2023-08-31T14:16:41;1.57;;;1.10;;
15673;SDS011;7937;48.090;16.212;2023-08-31T14:19:44;1.10;;;1.00;;
15673;SDS011;7937;48.090;16.212;2023-08-31T14:22:52;1.53;;;1.13;;
15673;SDS011;7937;48.090;16.212;2023-08-31T14:26:04;1.80;;;1.30;;
15673;SDS011;7937;48.090;16.212;2023-08-31T14:29:08;2.43;;;1.57;;
15673;SDS011;7937;48.090;16.212;2023-08-31T14:32:20;1.20;;;1.10;;
15673;SDS011;7937;48.090;16.212;2023-08-31T14:35:56;3.57;;;1.30;;
15673;SDS011;7937;48.090;16.212;2023-08-31T14:39:35;1.53;;;1.40;;
15673;SDS011;7937;48.090;16.212;2023-08-31T14:42:52;1.50;;;1.40;;
15673;SDS011;7937;48.090;16.212;2023-08-31T14:45:59;2.20;;;1.47;;
15673;SDS011;7937;48.090;16.212;2023-08-31T14:49:06;2.57;;;1.40;;
15673;SDS011;7937;48.090;16.212;2023-08-31T14:52:09;3.17;;;1.53;;
15673;SDS011;7937;48.090;16.212;2023-08-31T14:55:12;2.50;;;1.20;;
15673;SDS011;7937;48.090;16.212;2023-08-31T14:58:15;2.47;;;1.20;;
15673;SDS011;7937;48.090;16.212;2023-08-31T15:01:18;1.60;;;1.20;;
15673;SDS011;7937;48.090;16.212;2023-08-31T15:04:22;3.40;;;1.37;;
15673;SDS011;7937;48.090;16.212;2023-08-31T15:07:25;2.93;;;1.07;;
15673;SDS011;7937;48.090;16.212;2023-08-31T15:10:28;2.33;;;1.40;;
15673;SDS011;7937;48.090;16.212;2023-08-31T15:13:31;1.60;;;1.30;;
15673;SDS011;7937;48.090;16.212;2023-08-31T15:16:34;1.53;;;1.43;;
15673;SDS011;7937;48.090;16.212;2023-08-31T15:19:39;1.97;;;1.10;;
15673;SDS011;7937;48.090;16.212;2023-08-31T15:22:42;2.07;;;1.30;;
15673;SDS011;7937;48.090;16.212;2023-08-31T15:25:45;2.23;;;1.33;;
15673;SDS011;7937;48.090;16.212;2023-08-31T15:28:50;1.43;;;1.20;;
15673;SDS011;7937;48.090;16.212;2023-08-31T15:31:54;2.80;;;1.17;;
15673;SDS011;7937;48.090;16.212;2023-08-31T15:34:57;1.50;;;1.20;;
15673;SDS011;7937;48.090;16.212;2023-08-31T15:38:01;2.53;;;1.17;;
15673;SDS011;7937;48.090;16.212;2023-08-31T15:41:06;1.60;;;1.37;;
15673;SDS011;7937;48.090;16.212;2023-08-31T15:44:09;2.87;;;1.17;;
15673;SDS011;7937;48.090;16.212;2023-08-31T15:47:12;1.50;;;1.20;;
15673;SDS011;7937;48.090;16.212;2023-08-31T15:50:15;1.70;;;1.10;;
15673;SDS011;7937;48.090;16.212;2023-08-31T15:53:18;1.70;;;1.60;;
15673;SDS011;7937;48.090;16.212;2023-08-31T15:56:21;2.90;;;1.43;;
15673;SDS011;7937;48.090;16.212;2023-08-31T15:59:23;2.67;;;1.33;;
15673;SDS011;7937;48.090;16.212;2023-08-31T16:02:32;2.50;;;1.43;;
15673;SDS011;7937;48.090;16.212;2023-08-31T16:06:13;1.77;;;1.07;;
15673;SDS011;7937;48.090;16.212;2023-08-31T16:09:16;1.37;;;1.27;;
15673;SDS011;7937;48.090;16.212;2023-08-31T16:12:19;1.13;;;1.00;;
15673;SDS011;7937;48.090;16.212;2023-08-31T16:15:26;2.70;;;1.07;;
15673;SDS011;7937;48.090;16.212;2023-08-31T16:18:30;2.23;;;1.27;;
15673;SDS011;7937;48.090;16.212;2023-08-31T16:21:32;1.70;;;1.30;;
15673;SDS011;7937;48.090;16.212;2023-08-31T16:24:35;2.20;;;1.30;;
15673;SDS011;7937;48.090;16.212;2023-08-31T16:27:39;3.63;;;1.43;;
15673;SDS011;7937;48.090;16.212;2023-08-31T16:30:45;1.70;;;1.20;;
15673;SDS011;7937;48.090;16.212;2023-08-31T16:33:49;2.20;;;1.30;;
15673;SDS011;7937;48.090;16.212;2023-08-31T16:36:52;1.97;;;1.30;;
15673;SDS011;7937;48.090;16.212;2023-08-31T16:39:55;2.80;;;1.30;;
15673;SDS011;7937;48.090;16.212;2023-08-31T16:43:00;2.17;;;1.30;;
15673;SDS011;7937;48.090;16.212;2023-08-31T16:46:03;1.50;;;1.37;;
15673;SDS011;7937;48.090;16.212;2023-08-31T16:49:06;2.23;;;1.30;;
15673;SDS011;7937;48.090;16.212;2023-08-31T16:52:10;1.50;;;1.30;;
15673;SDS011;7937;48.090;16.212;2023-08-31T16:55:13;1.33;;;1.10;;
15673;SDS011;7937;48.090;16.212;2023-08-31T16:58:16;1.20;;;1.10;;
15673;SDS011;7937;48.090;16.212;2023-08-31T17:01:26;4.17;;;1.50;;
15673;SDS011;7937;48.090;16.212;2023-08-31T17:04:59;1.17;;;1.00;;
15673;SDS011;7937;48.090;16.212;2023-08-31T17:08:30;3.23;;;1.40;;
15673;SDS011;7937;48.090;16.212;2023-08-31T17:11:40;2.83;;;1.27;;
15673;SDS011;7937;48.090;16.212;2023-08-31T17:14:46;1.10;;;1.00;;
15673;SDS011;7937;48.090;16.212;2023-08-31T17:17:53;1.40;;;1.10;;
15673;SDS011;7937;48.090;16.212;2023-08-31T17:21:04;2.23;;;1.40;;
15673;SDS011;7937;48.090;16.212;2023-08-31T17:24:17;1.73;;;1.40;;
15673;SDS011;7937;48.090;16.212;2023-08-31T17:27:53;3.90;;;1.37;;
15673;SDS011;7937;48.090;16.212;2023-08-31T17:31:30;1.57;;;1.33;;
15673;SDS011;7937;48.090;16.212;2023-08-31T17:35:03;1.63;;;1.20;;
15673;SDS011;7937;48.090;16.212;2023-08-31T17:38:24;1.77;;;1.17;;
15673;SDS011;7937;48.090;16.212;2023-08-31T17:41:37;1.50;;;1.27;;
15673;SDS011;7937;48.090;16.212;2023-08-31T17:44:43;1.77;;;1.40;;
15673;SDS011;7937;48.090;16.212;2023-08-31T17:47:50;4.10;;;1.70;;
15673;SDS011;7937;48.090;16.212;2023-08-31T17:51:19;2.67;;;1.53;;
15673;SDS011;7937;48.090;16.212;2023-08-31T17:54:26;1.67;;;1.30;;
15673;SDS011;7937;48.090;16.212;2023-08-31T17:57:29;2.70;;;1.23;;
15673;SDS011;7937;48.090;16.212;2023-08-31T18:00:41;2.90;;;1.20;;
15673;SDS011;7937;48.090;16.212;2023-08-31T18:03:46;1.40;;;1.30;;
15673;SDS011;7937;48.090;16.212;2023-08-31T18:06:50;1.43;;;1.10;;
15673;SDS011;7937;48.090;16.212;2023-08-31T18:10:04;1.80;;;1.33;;
15673;SDS011;7937;48.090;16.212;2023-08-31T18:13:09;1.90;;;1.30;;
15673;SDS011;7937;48.090;16.212;2023-08-31T18:16:13;2.70;;;1.40;;
15673;SDS011;7937;48.090;16.212;2023-08-31T18:19:18;2.90;;;1.27;;
15673;SDS011;7937;48.090;16.212;2023-08-31T18:22:22;1.90;;;1.27;;
15673;SDS011;7937;48.090;16.212;2023-08-31T18:25:26;1.13;;;1.03;;
15673;SDS011;7937;48.090;16.212;2023-08-31T18:28:30;1.77;;;1.17;;
15673;SDS011;7937;48.090;16.212;2023-08-31T18:31:37;2.20;;;1.37;;
15673;SDS011;7937;48.090;16.212;2023-08-31T18:34:45;1.90;;;1.20;;
15673;SDS011;7937;48.090;16.212;2023-08-31T18:37:59;2.33;;;1.30;;
15673;SDS011;7937;48.090;16.212;2023-08-31T18:41:12;2.50;;;1.30;;
15673;SDS011;7937;48.090;16.212;2023-08-31T18:44:17;3.00;;;1.50;;
15673;SDS011;7937;48.090;16.212;2023-08-31T18:47:24;1.80;;;0.93;;
15673;SDS011;7937;48.090;16.212;2023-08-31T18:50:30;2.77;;;1.67;;
15673;SDS011;7937;48.090;16.212;2023-08-31T18:53:48;2.33;;;1.70;;
15673;SDS011;7937;48.090;16.212;2023-08-31T18:56:52;3.53;;;1.60;;
15673;SDS011;7937;48.090;16.212;2023-08-31T18:59:56;2.63;;;1.73;;
15673;SDS011;7937;48.090;16.212;2023-08-31T19:03:13;2.33;;;1.40;;